createdAt,value
2023-01-07T00:01:39.144Z,41.08
2023-01-07T00:06:39.582Z,38.00
2023-01-07T00:09:12.407Z,41.85
2023-01-07T00:11:41.707Z,41.78
2023-01-07T00:14:12.100Z,39.88
2023-01-07T00:16:41.102Z,42.80
2023-01-07T00:19:13.717Z,42.08
2023-01-07T00:21:42.401Z,42.13
2023-01-07T00:24:11.512Z,41.38
2023-01-07T00:26:40.480Z,38.50
2023-01-07T00:29:09.131Z,41.53
2023-01-07T00:31:39.603Z,39.72
2023-01-07T00:34:09.380Z,37.85
2023-01-07T00:36:40.961Z,39.35
2023-01-07T00:39:15.196Z,42.53
2023-01-07T00:42:04.402Z,38.42
2023-01-07T00:44:33.524Z,42.28
2023-01-07T00:47:01.808Z,37.97
2023-01-07T00:49:30.246Z,38.85
2023-01-07T00:52:00.871Z,37.25
2023-01-07T00:54:29.348Z,40.92
2023-01-07T00:56:57.646Z,39.88
2023-01-07T00:59:25.824Z,41.05
2023-01-07T01:01:54.287Z,40.67
2023-01-07T01:04:22.497Z,41.58
2023-01-07T01:06:50.695Z,41.80
2023-01-07T01:09:20.790Z,45.05
2023-01-07T01:11:49.094Z,41.10
2023-01-07T01:14:17.444Z,39.00
2023-01-07T01:16:47.119Z,38.63
2023-01-07T01:19:15.633Z,40.20
2023-01-07T01:21:43.850Z,38.88
2023-01-07T01:24:12.209Z,40.33
2023-01-07T01:26:40.454Z,41.58
2023-01-07T01:29:08.728Z,41.97
2023-01-07T01:31:37.146Z,39.80
2023-01-07T01:34:06.509Z,40.08
2023-01-07T01:36:35.925Z,41.00
2023-01-07T01:39:05.067Z,40.92
2023-01-07T01:41:35.731Z,38.63
2023-01-07T01:44:47.918Z,40.35
2023-01-07T01:47:24.940Z,40.45
2023-01-07T01:50:09.940Z,39.55
2023-01-07T01:52:43.919Z,40.40
2023-01-07T01:55:16.908Z,41.30
2023-01-07T01:57:48.043Z,41.17
2023-01-07T02:00:16.774Z,40.67
2023-01-07T02:02:56.966Z,41.13
2023-01-07T02:05:33.112Z,41.45
2023-01-07T02:08:01.369Z,40.28
2023-01-07T02:10:33.152Z,39.20
2023-01-07T02:13:20.735Z,40.47
2023-01-07T02:15:54.964Z,38.38
2023-01-07T02:18:57.392Z,39.28
2023-01-07T02:21:46.563Z,39.33
2023-01-07T02:24:29.829Z,36.83
2023-01-07T02:27:45.257Z,36.00
2023-01-07T02:30:25.567Z,36.40
2023-01-07T02:33:15.039Z,36.80
2023-01-07T02:36:11.767Z,36.35
2023-01-07T02:38:43.084Z,35.35
2023-01-07T02:41:29.081Z,35.20
2023-01-07T02:44:45.437Z,37.47
2023-01-07T02:47:34.329Z,37.50
2023-01-07T02:50:02.836Z,38.42
2023-01-07T02:52:34.124Z,38.58
2023-01-07T02:55:11.268Z,38.42
2023-01-07T02:58:04.962Z,36.45
2023-01-07T03:00:43.169Z,37.08
2023-01-07T03:03:48.539Z,35.35
2023-01-07T03:06:42.046Z,35.05
2023-01-07T03:09:32.711Z,34.97
2023-01-07T03:12:05.818Z,35.00
2023-01-07T03:14:41.014Z,36.05
2023-01-07T03:17:18.448Z,33.38
2023-01-07T03:19:52.505Z,34.25
2023-01-07T03:22:23.622Z,35.03
2023-01-07T03:24:57.939Z,34.05
2023-01-07T03:27:30.552Z,36.22
2023-01-07T03:30:00.480Z,34.20
2023-01-07T03:32:41.371Z,35.35
2023-01-07T03:35:10.735Z,35.20
2023-01-07T03:37:42.844Z,38.13
2023-01-07T03:40:12.951Z,37.40
2023-01-07T03:42:46.890Z,38.67
2023-01-07T03:45:26.631Z,36.90
2023-01-07T03:50:30.758Z,37.65
2023-01-07T03:52:59.175Z,38.25
2023-01-07T03:55:27.381Z,37.75
2023-01-07T03:57:58.122Z,37.55
2023-01-07T04:00:27.922Z,40.20
2023-01-07T04:03:02.720Z,39.88
2023-01-07T04:05:37.961Z,38.88
2023-01-07T04:08:06.397Z,40.00
2023-01-07T04:10:37.775Z,39.28
2023-01-07T04:13:06.106Z,40.60
2023-01-07T04:15:34.504Z,40.80
2023-01-07T04:18:02.834Z,39.63
2023-01-07T04:20:32.258Z,39.47
2023-01-07T04:23:00.589Z,42.03
2023-01-07T04:25:30.652Z,41.60
2023-01-07T04:27:58.963Z,41.65
2023-01-07T04:30:27.354Z,42.35
2023-01-07T04:32:55.666Z,41.80
2023-01-07T04:35:23.860Z,43.65
2023-01-07T04:37:52.137Z,41.20
2023-01-07T04:40:20.436Z,42.08
2023-01-07T04:42:49.343Z,44.33
2023-01-07T04:45:21.625Z,43.40
2023-01-07T04:47:50.557Z,42.13
2023-01-07T04:50:19.082Z,42.17
2023-01-07T04:52:47.759Z,42.25
2023-01-07T04:55:16.964Z,40.90
2023-01-07T04:57:47.019Z,41.72
2023-01-07T05:00:16.396Z,43.40
2023-01-07T05:02:47.433Z,43.25
2023-01-07T05:05:16.534Z,42.70
2023-01-07T05:07:46.402Z,42.38
2023-01-07T05:10:15.433Z,43.78
2023-01-07T05:12:44.076Z,42.03
2023-01-07T05:15:14.260Z,42.90
2023-01-07T05:17:43.755Z,44.85
2023-01-07T05:20:13.675Z,44.90
2023-01-07T05:23:00.193Z,43.85
2023-01-07T05:25:28.555Z,43.58
2023-01-07T05:27:57.155Z,43.53
2023-01-07T05:30:27.039Z,43.45
2023-01-07T05:32:55.320Z,44.92
2023-01-07T05:35:24.368Z,43.97
2023-01-07T05:37:52.747Z,41.60
2023-01-07T05:40:21.882Z,44.30
2023-01-07T05:42:50.275Z,41.28
2023-01-07T05:45:18.609Z,45.00
2023-01-07T05:47:46.795Z,43.72
2023-01-07T05:50:15.053Z,43.17
2023-01-07T05:52:43.310Z,42.28
2023-01-07T05:55:11.528Z,44.28
2023-01-07T05:57:39.792Z,42.97
2023-01-07T06:00:10.360Z,46.05
2023-01-07T06:02:41.476Z,44.03
2023-01-07T06:05:10.197Z,44.65
2023-01-07T06:07:38.573Z,41.33
2023-01-07T06:10:07.215Z,42.33
2023-01-07T06:12:35.450Z,44.03
2023-01-07T06:15:03.758Z,41.95
2023-01-07T06:17:34.504Z,44.53
2023-01-07T06:20:02.766Z,44.80
2023-01-07T06:22:31.125Z,41.70
2023-01-07T06:24:59.337Z,42.90
2023-01-07T06:27:27.664Z,41.05
2023-01-07T06:29:55.896Z,43.22
2023-01-07T06:32:24.264Z,40.42
2023-01-07T06:34:52.597Z,41.92
2023-01-07T06:37:21.033Z,39.13
2023-01-07T06:39:49.194Z,41.95
2023-01-07T06:42:17.374Z,41.58
2023-01-07T06:44:48.120Z,40.85
2023-01-07T06:47:16.505Z,41.03
2023-01-07T06:49:44.707Z,40.20
2023-01-07T06:52:12.966Z,40.40
2023-01-07T06:54:41.226Z,39.42
2023-01-07T06:57:09.535Z,40.22
2023-01-07T06:59:37.794Z,43.15
2023-01-07T07:02:06.106Z,39.58
2023-01-07T07:04:34.415Z,43.10
2023-01-07T07:07:02.638Z,41.35
2023-01-07T07:09:31.002Z,40.65
2023-01-07T07:12:00.105Z,37.65
2023-01-07T07:14:28.265Z,39.63
2023-01-07T07:16:56.452Z,39.95
2023-01-07T07:19:24.617Z,42.20
2023-01-07T07:21:52.998Z,40.33
2023-01-07T07:24:21.153Z,39.63
2023-01-07T07:26:49.633Z,41.78
2023-01-07T07:29:17.890Z,39.97
2023-01-07T07:31:46.222Z,40.88
2023-01-07T07:34:14.429Z,39.72
2023-01-07T07:36:42.751Z,41.88
2023-01-07T07:39:12.294Z,40.10
2023-01-07T07:41:40.749Z,41.70
2023-01-07T07:44:10.993Z,43.15
2023-01-07T07:46:40.711Z,38.83
2023-01-07T07:49:10.708Z,39.50
2023-01-07T07:51:38.980Z,38.28
2023-01-07T07:54:07.251Z,37.33
2023-01-07T07:56:35.624Z,37.53
2023-01-07T07:59:03.855Z,37.65
2023-01-07T08:01:37.113Z,36.15
2023-01-07T08:04:05.738Z,36.28
2023-01-07T08:06:34.396Z,36.28
2023-01-07T08:09:02.887Z,34.55
2023-01-07T08:11:31.102Z,35.10
2023-01-07T08:13:59.413Z,28.08
2023-01-07T08:16:27.792Z,29.50
2023-01-07T08:18:56.072Z,29.42
2023-01-07T08:21:24.306Z,31.92
2023-01-07T08:23:52.514Z,28.92
2023-01-07T08:26:20.890Z,30.58
2023-01-07T08:28:49.141Z,28.33
2023-01-07T08:31:17.389Z,29.08
2023-01-07T08:33:45.649Z,25.15
2023-01-07T08:36:22.512Z,26.63
2023-01-07T08:38:52.939Z,23.85
2023-01-07T08:41:25.750Z,27.35
2023-01-07T08:43:54.178Z,26.10
2023-01-07T08:46:22.637Z,25.13
2023-01-07T08:48:51.134Z,26.08
2023-01-07T08:51:19.327Z,26.13
2023-01-07T08:53:47.955Z,23.35
2023-01-07T08:56:16.305Z,25.98
2023-01-07T08:58:44.534Z,25.25
2023-01-07T09:01:12.939Z,24.55
2023-01-07T09:03:41.264Z,24.83
2023-01-07T09:06:09.500Z,23.40
2023-01-07T09:08:40.237Z,26.00
2023-01-07T09:11:08.547Z,26.73
2023-01-07T09:13:36.810Z,25.27
2023-01-07T09:16:05.367Z,24.23
2023-01-07T09:18:33.656Z,25.42
2023-01-07T09:21:01.780Z,25.77
2023-01-07T09:23:30.007Z,24.50
2023-01-07T09:25:58.224Z,25.60
2023-01-07T09:28:26.393Z,26.00
2023-01-07T09:30:56.674Z,25.73
2023-01-07T09:33:27.822Z,25.70
2023-01-07T09:35:56.081Z,25.73
2023-01-07T09:38:24.289Z,27.27
2023-01-07T09:40:52.955Z,24.73
2023-01-07T09:43:59.836Z,24.02
2023-01-07T09:46:26.074Z,23.17
2023-01-07T09:49:00.434Z,23.90
2023-01-07T09:51:39.300Z,24.33
2023-01-07T09:54:25.979Z,24.58
2023-01-07T09:56:54.426Z,26.17
2023-01-07T09:59:22.650Z,23.65
2023-01-07T10:01:59.774Z,25.40
2023-01-07T10:04:55.838Z,24.70
2023-01-07T10:07:39.098Z,24.45
2023-01-07T10:10:16.696Z,24.95
2023-01-07T10:12:59.606Z,26.58
2023-01-07T10:15:30.605Z,25.80
2023-01-07T10:18:10.456Z,27.05
2023-01-07T10:21:06.556Z,26.15
2023-01-07T10:23:41.757Z,26.33
2023-01-07T10:26:22.658Z,27.52
2023-01-07T10:29:14.344Z,25.85
2023-01-07T10:31:44.558Z,26.92
2023-01-07T10:34:22.410Z,26.40
2023-01-07T10:37:08.785Z,26.20
2023-01-07T10:39:47.567Z,25.48
2023-01-07T10:42:30.180Z,24.77
2023-01-07T10:45:06.067Z,25.50
2023-01-07T10:48:06.386Z,26.73
2023-01-07T10:50:57.731Z,24.65
2023-01-07T10:53:44.841Z,26.52
2023-01-07T10:56:30.327Z,26.17
2023-01-07T10:58:59.116Z,27.65
2023-01-07T11:01:36.906Z,27.27
2023-01-07T11:04:13.323Z,31.27
2023-01-07T11:06:53.701Z,31.65
2023-01-07T11:09:41.243Z,31.92
2023-01-07T11:12:37.788Z,36.03
2023-01-07T11:15:26.331Z,35.55
2023-01-07T11:18:04.051Z,34.30
2023-01-07T11:20:48.889Z,34.03
2023-01-07T11:23:39.663Z,37.30
2023-01-07T11:26:19.778Z,37.42
2023-01-07T11:29:02.547Z,35.13
2023-01-07T11:31:51.648Z,35.07
2023-01-07T11:35:06.662Z,33.50
2023-01-07T11:37:46.275Z,32.50
2023-01-07T11:40:14.744Z,33.72
2023-01-07T11:43:14.928Z,32.75
2023-01-07T11:46:21.398Z,34.78
2023-01-07T11:49:00.936Z,36.88
2023-01-07T11:51:40.116Z,34.60
2023-01-07T11:54:20.972Z,33.33
2023-01-07T11:56:49.742Z,32.08
2023-01-07T11:59:21.107Z,31.02
2023-01-07T12:01:52.978Z,31.42
2023-01-07T12:04:33.118Z,29.33
2023-01-07T12:07:07.651Z,30.80
2023-01-07T12:09:38.637Z,32.63
2023-01-07T12:12:31.884Z,31.63
2023-01-07T12:15:03.828Z,31.95
2023-01-07T12:17:35.130Z,34.88
2023-01-07T12:20:12.165Z,33.17
2023-01-07T12:22:59.248Z,33.03
2023-01-07T12:25:46.198Z,30.58
2023-01-07T12:28:18.671Z,28.73
2023-01-07T12:31:08.071Z,27.20
2023-01-07T12:34:14.885Z,27.48
2023-01-07T12:37:00.685Z,26.48
2023-01-07T12:39:46.237Z,28.20
2023-01-07T12:42:26.343Z,27.13
2023-01-07T12:45:04.125Z,29.30
2023-01-07T12:47:40.044Z,28.67
2023-01-07T12:50:49.756Z,26.38
2023-01-07T12:53:34.037Z,27.90
2023-01-07T12:56:22.953Z,25.98
2023-01-07T12:58:59.468Z,26.67
2023-01-07T13:01:40.141Z,26.27
2023-01-07T13:04:14.583Z,27.42
2023-01-07T13:07:16.574Z,28.77
2023-01-07T13:10:11.907Z,28.27
2023-01-07T13:12:48.534Z,28.60
2023-01-07T13:15:27.173Z,27.17
2023-01-07T13:18:08.372Z,27.98
2023-01-07T13:20:48.457Z,29.98
2023-01-07T13:23:39.903Z,26.02
2023-01-07T13:26:30.901Z,27.70
2023-01-07T13:29:31.626Z,28.13
2023-01-07T13:32:15.237Z,28.60
2023-01-07T13:37:39.937Z,26.77
2023-01-07T13:40:38.433Z,29.50
2023-01-07T13:43:27.480Z,28.08
2023-01-07T13:46:08.884Z,29.30
2023-01-07T13:48:40.051Z,30.63
2023-01-07T13:51:11.403Z,31.42
2023-01-07T13:53:41.780Z,32.47
2023-01-07T13:56:19.006Z,31.73
2023-01-07T13:58:53.600Z,32.25
2023-01-07T14:01:30.044Z,32.15
2023-01-07T14:04:06.252Z,32.13
2023-01-07T14:06:45.186Z,31.63
2023-01-07T14:09:21.228Z,30.52
2023-01-07T14:12:28.721Z,30.92
2023-01-07T14:15:19.655Z,30.38
2023-01-07T14:18:14.812Z,31.45
2023-01-07T14:20:53.822Z,29.00
2023-01-07T14:23:27.998Z,28.55
2023-01-07T14:26:17.611Z,30.73
2023-01-07T14:29:37.160Z,28.35
2023-01-07T14:32:32.943Z,27.65
2023-01-07T14:35:42.583Z,25.58
2023-01-07T14:38:29.358Z,26.63
2023-01-07T14:41:10.867Z,26.58
2023-01-07T14:43:43.365Z,27.30
2023-01-07T14:46:26.391Z,26.77
2023-01-07T14:49:03.720Z,27.77
2023-01-07T14:51:56.392Z,28.00
2023-01-07T14:54:52.464Z,29.50
2023-01-07T14:57:36.182Z,29.15
2023-01-07T15:00:19.436Z,26.80
2023-01-07T15:03:12.883Z,26.80
2023-01-07T15:06:11.817Z,27.15
2023-01-07T15:09:31.450Z,25.95
2023-01-07T15:12:24.957Z,24.80
2023-01-07T15:15:23.962Z,27.40
2023-01-07T15:17:52.256Z,28.90
2023-01-07T15:20:20.541Z,29.92
2023-01-07T15:23:00.508Z,28.70
2023-01-07T15:25:56.606Z,29.42
2023-01-07T15:28:34.489Z,28.85
2023-01-07T15:31:29.060Z,30.65
2023-01-07T15:34:16.092Z,29.13
2023-01-07T15:36:48.074Z,30.38
2023-01-07T15:39:28.245Z,32.72
2023-01-07T15:41:57.776Z,31.88
2023-01-07T15:44:32.216Z,35.88
2023-01-07T15:47:00.856Z,33.15
2023-01-07T15:49:30.028Z,31.85
2023-01-07T15:52:02.064Z,31.88
2023-01-07T15:54:39.477Z,31.55
2023-01-07T15:58:08.735Z,29.60
2023-01-07T16:01:48.134Z,30.00
2023-01-07T16:04:37.136Z,31.33
2023-01-07T16:07:07.236Z,31.30
2023-01-07T16:09:35.640Z,30.98
2023-01-07T16:12:31.359Z,32.63
2023-01-07T16:14:59.763Z,31.77
2023-01-07T16:17:28.192Z,31.30
2023-01-07T16:20:28.055Z,30.98
2023-01-07T16:23:09.756Z,32.60
2023-01-07T16:26:47.263Z,33.10
2023-01-07T16:29:45.584Z,37.13
2023-01-07T16:32:14.197Z,38.03
2023-01-07T16:34:42.898Z,48.67
2023-01-07T16:37:15.956Z,65.75
2023-01-07T16:39:48.924Z,64.80
2023-01-07T16:42:20.030Z,63.03
2023-01-07T16:44:51.237Z,56.50
2023-01-07T16:47:29.065Z,45.17
2023-01-07T16:50:15.739Z,40.70
2023-01-07T16:53:49.655Z,33.40
2023-01-07T16:57:14.496Z,32.67
2023-01-07T16:59:46.605Z,32.53
2023-01-07T17:02:27.269Z,31.05
2023-01-07T17:05:19.150Z,32.95
2023-01-07T17:07:51.834Z,31.48
2023-01-07T17:10:31.302Z,32.53
2023-01-07T17:13:15.675Z,32.00
2023-01-07T17:15:44.452Z,30.73
2023-01-07T17:18:15.371Z,34.63
2023-01-07T17:21:35.206Z,34.22
2023-01-07T17:25:22.316Z,31.70
2023-01-07T17:28:59.217Z,32.97
2023-01-07T17:32:26.167Z,33.00
2023-01-07T17:35:57.599Z,33.63
2023-01-07T17:39:24.819Z,32.58
2023-01-07T17:43:10.788Z,32.30
2023-01-07T17:46:37.739Z,32.20
2023-01-07T17:50:04.948Z,32.78
2023-01-07T17:53:33.365Z,35.90
2023-01-07T17:57:00.861Z,34.17
2023-01-07T18:00:30.906Z,34.13
2023-01-07T18:03:57.597Z,36.85
2023-01-07T18:07:24.905Z,34.83
2023-01-07T18:11:10.907Z,37.10
2023-01-07T18:14:37.613Z,36.40
2023-01-07T18:18:06.773Z,36.53
2023-01-07T18:21:33.421Z,36.28
2023-01-07T18:25:00.164Z,38.80
2023-01-07T18:28:28.040Z,40.10
2023-01-07T18:31:55.014Z,38.92
2023-01-07T18:35:22.875Z,38.97
2023-01-07T18:38:51.908Z,40.05
2023-01-07T18:42:19.908Z,40.60
2023-01-07T18:45:48.256Z,39.35
2023-01-07T18:49:18.762Z,39.58
2023-01-07T18:52:47.292Z,40.05
2023-01-07T18:56:14.848Z,39.40
2023-01-07T18:59:41.747Z,35.90
2023-01-07T19:03:14.102Z,38.83
2023-01-07T19:06:40.830Z,42.95
2023-01-07T19:10:07.924Z,39.83
2023-01-07T19:13:35.304Z,39.25
2023-01-07T19:17:07.801Z,40.35
2023-01-07T19:20:00.367Z,40.17
2023-01-07T19:22:29.806Z,41.20
2023-01-07T19:25:01.542Z,40.50
2023-01-07T19:27:34.391Z,42.60
2023-01-07T19:30:18.343Z,39.65
2023-01-07T19:32:48.575Z,38.67
2023-01-07T19:36:17.764Z,37.92
2023-01-07T19:39:45.998Z,40.20
2023-01-07T19:43:14.788Z,39.17
2023-01-07T19:46:52.048Z,38.47
2023-01-07T19:50:19.348Z,38.15
2023-01-07T19:53:49.203Z,39.40
2023-01-07T19:57:15.938Z,39.22
2023-01-07T20:00:42.928Z,39.00
2023-01-07T20:04:09.782Z,40.95
2023-01-07T20:07:37.182Z,40.33
2023-01-07T20:11:04.597Z,39.63
2023-01-07T20:14:32.551Z,39.22
2023-01-07T20:17:59.278Z,41.00
2023-01-07T20:21:26.490Z,41.90
2023-01-07T20:24:53.475Z,43.53
2023-01-07T20:28:21.065Z,42.20
2023-01-07T20:31:48.209Z,41.38
2023-01-07T20:35:00.802Z,39.55
2023-01-07T20:37:59.841Z,41.20
2023-01-07T20:40:32.770Z,42.60
2023-01-07T20:43:01.831Z,42.28
2023-01-07T20:45:30.241Z,41.60
2023-01-07T20:48:02.168Z,42.05
2023-01-07T20:50:36.313Z,41.88
2023-01-07T20:53:11.987Z,41.72
2023-01-07T20:56:02.552Z,41.55
2023-01-07T20:58:37.650Z,42.45
2023-01-07T21:01:11.243Z,42.25
2023-01-07T21:03:40.797Z,41.78
2023-01-07T21:06:12.072Z,40.75
2023-01-07T21:08:41.010Z,44.60
2023-01-07T21:11:18.375Z,43.80
2023-01-07T21:13:50.918Z,38.53
2023-01-07T21:16:19.836Z,42.00
2023-01-07T21:18:48.447Z,40.13
2023-01-07T21:21:26.017Z,43.83
2023-01-07T21:23:54.815Z,44.28
2023-01-07T21:26:24.214Z,42.55
2023-01-07T21:28:56.320Z,40.80
2023-01-07T21:31:28.699Z,41.53
2023-01-07T21:33:58.328Z,42.80
2023-01-07T21:36:27.871Z,41.40
2023-01-07T21:38:58.799Z,41.88
2023-01-07T21:41:28.872Z,42.58
2023-01-07T21:43:58.758Z,40.90
2023-01-07T21:46:30.028Z,42.13
2023-01-07T21:48:59.138Z,42.00
2023-01-07T21:51:28.377Z,44.17
2023-01-07T21:53:58.335Z,41.90
2023-01-07T21:56:32.766Z,43.13
2023-01-07T21:59:02.837Z,42.10
2023-01-07T22:01:31.312Z,41.53
2023-01-07T22:04:00.328Z,43.55
2023-01-07T22:06:34.765Z,42.90
2023-01-07T22:09:08.889Z,42.83
2023-01-07T22:11:39.027Z,38.50
2023-01-07T22:14:08.588Z,42.08
2023-01-07T22:16:41.218Z,39.70
2023-01-07T22:19:12.987Z,42.42
2023-01-07T22:21:44.384Z,40.50
2023-01-07T22:24:15.211Z,42.15
2023-01-07T22:26:43.550Z,40.90
2023-01-07T22:29:11.891Z,41.53
2023-01-07T22:31:40.544Z,42.95
2023-01-07T22:34:09.792Z,40.05
2023-01-07T22:36:58.211Z,41.40
2023-01-07T22:39:34.436Z,41.50
2023-01-07T22:42:14.062Z,38.55
2023-01-07T22:44:47.199Z,41.20
2023-01-07T22:47:18.646Z,42.65
2023-01-07T22:49:48.349Z,42.88
2023-01-07T22:52:16.631Z,39.38
2023-01-07T22:54:46.219Z,41.88
2023-01-07T22:57:14.882Z,40.45
2023-01-07T22:59:43.462Z,41.30
2023-01-07T23:02:11.881Z,40.58
2023-01-07T23:04:40.056Z,41.10
2023-01-07T23:07:08.346Z,42.83
2023-01-07T23:09:36.588Z,38.55
2023-01-07T23:12:04.980Z,39.67
2023-01-07T23:14:33.130Z,42.53
2023-01-07T23:17:01.611Z,41.38
2023-01-07T23:19:32.013Z,41.58
2023-01-07T23:22:00.458Z,42.83
2023-01-07T23:24:28.718Z,41.08
2023-01-07T23:26:57.346Z,40.20
2023-01-07T23:29:25.745Z,42.60
2023-01-07T23:31:54.178Z,41.75
2023-01-07T23:34:22.525Z,40.25
2023-01-07T23:36:50.724Z,39.38
2023-01-07T23:39:18.879Z,39.00
2023-01-07T23:41:47.122Z,38.90
2023-01-07T23:44:15.442Z,39.03
2023-01-07T23:46:43.625Z,40.15
2023-01-07T23:49:11.851Z,38.67
2023-01-07T23:51:41.262Z,38.80
2023-01-07T23:54:09.730Z,39.72
2023-01-07T23:56:37.923Z,40.28
2023-01-07T23:59:06.630Z,41.17
